Shawnee On Delaware, PA (18356)

9:44 PM EDT on July 01, 2015 (GMT -0400)
Terra Greens Golf Course | | Change Station
CLOSE
Current Station
Personal Weather Station
Location: East Stroudsburg, PA
Elevation: 518 ft
Nearby Weather Stations

Elev 518 ft 41.01 °N, 75.17 °W | Updated 2 seconds ago

Partly Cloudy
Partly Cloudy
66.9 °F
Feels Like 66.9 °F
N
0.3
Wind Variable Wind from NE
Gusts 2.2 mph

Today
High -- | Low -- °F
--% Chance of Precip.
Yesterday
High -- | Low -- °F
Precip. -- in
5:31 AM 8:36 PM
Full, 100% visible
Pressure 29.88 in
Visibility 9.0 miles
Clouds Few 4500 ft
Few 5000 ft
Scattered Clouds 7000 ft
Dew Point 58 °F
Humidity 72%
Rainfall 0.20 in
Snow Depth Not available.
UV 0 out of 12
Pollen .50 out of 12
Air Quality Not available.
Flu Activity Not available.
METAR KMPO 020053Z AUTO 27008KT 9SM FEW045 FEW050 SCT070 19/14 A2989 RMK AO2 SLP116 T01940144

More Conditions Fewer Conditions

Pressure 29.88 in
Visibility 9.0 miles
Clouds Few 4500 ft
Few 5000 ft
Scattered Clouds 7000 ft
Dew Point 58 °F
Humidity 72%
Rainfall 0.20 in
Snow Depth Not available.
UV 0 out of 12
Pollen .50 out of 12
Air Quality Not available.
Flu Activity Not available.
METAR KMPO 020053Z AUTO 27008KT 9SM FEW045 FEW050 SCT070 19/14 A2989 RMK AO2 SLP116 T01940144

More Conditions Fewer Conditions

10-Day Weather Forecast

×

Almanac

Astronomy

Jul. 01, 2015 Rise Set
Actual Time
Civil Twilight
Nautical Twilight
Astronomical Twilight
Moon
Length of Visible Light
Length of Day
Tomorrow will be .
, % of the Moon is Illuminated

Today's Extremes

State Highs State Lows

Community

WunderPhotos

Upload Photos

1,834,376 photos uploaded!

WunderBlogs® & News

Nearby

Air Quality

  Air Quality AQ Index Pollutant
Not available.

Snow Depth

Station Depth Elevation

Earthquake Activity

City Distance Mag. Time & Date
Minimum magnitude displayed is 2.5.

Coastal Water Temperatures

Place Temperature

Stations

Nearby Weather Stations

Station Location Temp. Windchill Dew Point Humidity Wind Precip. Elev Updated Type